sensor_id;sensor_type;location;lat;lon;timestamp;P1;durP1;ratioP1;P2;durP2;ratioP2
37955;SDS011;23776;51.592;7.180;2024-01-30T00:01:48;14.20;;;7.88;;
37955;SDS011;23776;51.592;7.180;2024-01-30T00:04:14;16.30;;;7.63;;
37955;SDS011;23776;51.592;7.180;2024-01-30T00:06:41;14.73;;;7.35;;
37955;SDS011;23776;51.592;7.180;2024-01-30T00:09:07;20.65;;;7.70;;
37955;SDS011;23776;51.592;7.180;2024-01-30T00:11:34;19.80;;;8.50;;
37955;SDS011;23776;51.592;7.180;2024-01-30T00:13:59;15.40;;;7.70;;
37955;SDS011;23776;51.592;7.180;2024-01-30T00:16:25;17.35;;;7.53;;
37955;SDS011;23776;51.592;7.180;2024-01-30T00:18:51;14.68;;;7.25;;
37955;SDS011;23776;51.592;7.180;2024-01-30T00:21:18;13.00;;;7.35;;
37955;SDS011;23776;51.592;7.180;2024-01-30T00:23:44;22.15;;;8.05;;
37955;SDS011;23776;51.592;7.180;2024-01-30T00:26:09;17.85;;;7.28;;
37955;SDS011;23776;51.592;7.180;2024-01-30T00:28:36;15.00;;;7.55;;
37955;SDS011;23776;51.592;7.180;2024-01-30T00:31:02;17.20;;;8.70;;
37955;SDS011;23776;51.592;7.180;2024-01-30T00:33:28;14.57;;;8.05;;
37955;SDS011;23776;51.592;7.180;2024-01-30T00:35:53;16.80;;;7.97;;
37955;SDS011;23776;51.592;7.180;2024-01-30T00:38:19;15.45;;;7.68;;
37955;SDS011;23776;51.592;7.180;2024-01-30T00:40:44;15.68;;;7.75;;
37955;SDS011;23776;51.592;7.180;2024-01-30T00:43:10;16.33;;;7.88;;
37955;SDS011;23776;51.592;7.180;2024-01-30T00:45:36;20.90;;;8.38;;
37955;SDS011;23776;51.592;7.180;2024-01-30T00:48:01;15.05;;;7.82;;
37955;SDS011;23776;51.592;7.180;2024-01-30T00:50:27;17.40;;;7.82;;
37955;SDS011;23776;51.592;7.180;2024-01-30T00:52:52;15.95;;;7.63;;
37955;SDS011;23776;51.592;7.180;2024-01-30T00:55:18;15.13;;;8.75;;
37955;SDS011;23776;51.592;7.180;2024-01-30T00:57:44;20.05;;;9.30;;
37955;SDS011;23776;51.592;7.180;2024-01-30T01:00:09;21.65;;;8.88;;
37955;SDS011;23776;51.592;7.180;2024-01-30T01:02:35;17.42;;;8.57;;
37955;SDS011;23776;51.592;7.180;2024-01-30T01:05:01;17.25;;;8.20;;
37955;SDS011;23776;51.592;7.180;2024-01-30T01:07:28;16.73;;;8.63;;
37955;SDS011;23776;51.592;7.180;2024-01-30T01:09:53;13.27;;;7.53;;
37955;SDS011;23776;51.592;7.180;2024-01-30T01:12:19;18.77;;;8.07;;
37955;SDS011;23776;51.592;7.180;2024-01-30T01:14:44;22.98;;;8.35;;
37955;SDS011;23776;51.592;7.180;2024-01-30T01:17:10;13.55;;;7.60;;
37955;SDS011;23776;51.592;7.180;2024-01-30T01:19:36;15.85;;;8.30;;
37955;SDS011;23776;51.592;7.180;2024-01-30T01:22:01;15.18;;;7.30;;
37955;SDS011;23776;51.592;7.180;2024-01-30T01:24:28;18.77;;;8.48;;
37955;SDS011;23776;51.592;7.180;2024-01-30T01:26:55;18.15;;;8.80;;
37955;SDS011;23776;51.592;7.180;2024-01-30T01:29:22;20.15;;;7.90;;
37955;SDS011;23776;51.592;7.180;2024-01-30T01:31:53;16.55;;;8.15;;
37955;SDS011;23776;51.592;7.180;2024-01-30T01:34:22;16.55;;;8.43;;
37955;SDS011;23776;51.592;7.180;2024-01-30T01:36:48;23.33;;;9.10;;
37955;SDS011;23776;51.592;7.180;2024-01-30T01:39:14;15.40;;;8.52;;
37955;SDS011;23776;51.592;7.180;2024-01-30T01:41:40;18.98;;;8.07;;
37955;SDS011;23776;51.592;7.180;2024-01-30T01:44:06;19.42;;;8.20;;
37955;SDS011;23776;51.592;7.180;2024-01-30T01:46:32;17.30;;;9.07;;
37955;SDS011;23776;51.592;7.180;2024-01-30T01:48:59;17.20;;;8.63;;
37955;SDS011;23776;51.592;7.180;2024-01-30T01:51:27;18.63;;;8.70;;
37955;SDS011;23776;51.592;7.180;2024-01-30T01:53:54;19.23;;;8.95;;
37955;SDS011;23776;51.592;7.180;2024-01-30T01:56:22;18.80;;;8.80;;
37955;SDS011;23776;51.592;7.180;2024-01-30T01:58:49;18.25;;;8.35;;
37955;SDS011;23776;51.592;7.180;2024-01-30T02:01:16;14.35;;;7.72;;
37955;SDS011;23776;51.592;7.180;2024-01-30T02:03:45;17.27;;;8.95;;
37955;SDS011;23776;51.592;7.180;2024-01-30T02:06:12;22.38;;;9.10;;
37955;SDS011;23776;51.592;7.180;2024-01-30T02:08:41;19.52;;;8.82;;
37955;SDS011;23776;51.592;7.180;2024-01-30T02:11:07;18.20;;;8.95;;
37955;SDS011;23776;51.592;7.180;2024-01-30T02:13:33;29.45;;;9.00;;
37955;SDS011;23776;51.592;7.180;2024-01-30T02:15:59;14.93;;;9.35;;
37955;SDS011;23776;51.592;7.180;2024-01-30T02:18:26;22.52;;;9.35;;
37955;SDS011;23776;51.592;7.180;2024-01-30T02:20:53;13.75;;;7.85;;
37955;SDS011;23776;51.592;7.180;2024-01-30T02:23:19;18.77;;;9.07;;
37955;SDS011;23776;51.592;7.180;2024-01-30T02:25:45;21.33;;;8.77;;
37955;SDS011;23776;51.592;7.180;2024-01-30T02:28:11;15.55;;;8.70;;
37955;SDS011;23776;51.592;7.180;2024-01-30T02:30:37;19.17;;;8.43;;
37955;SDS011;23776;51.592;7.180;2024-01-30T02:33:09;16.52;;;7.78;;
37955;SDS011;23776;51.592;7.180;2024-01-30T02:35:35;24.27;;;9.00;;
37955;SDS011;23776;51.592;7.180;2024-01-30T02:38:01;20.25;;;8.52;;
37955;SDS011;23776;51.592;7.180;2024-01-30T02:40:26;17.85;;;8.65;;
37955;SDS011;23776;51.592;7.180;2024-01-30T02:42:52;17.00;;;8.38;;
37955;SDS011;23776;51.592;7.180;2024-01-30T02:45:18;20.70;;;8.98;;
37955;SDS011;23776;51.592;7.180;2024-01-30T02:47:43;16.67;;;8.77;;
37955;SDS011;23776;51.592;7.180;2024-01-30T02:50:09;15.98;;;8.73;;
37955;SDS011;23776;51.592;7.180;2024-01-30T02:52:34;16.08;;;8.48;;
37955;SDS011;23776;51.592;7.180;2024-01-30T02:55:00;17.65;;;8.75;;
37955;SDS011;23776;51.592;7.180;2024-01-30T02:57:27;22.48;;;8.88;;
37955;SDS011;23776;51.592;7.180;2024-01-30T02:59:52;15.52;;;8.50;;
37955;SDS011;23776;51.592;7.180;2024-01-30T03:02:18;20.40;;;8.98;;
37955;SDS011;23776;51.592;7.180;2024-01-30T03:04:43;19.42;;;8.38;;
37955;SDS011;23776;51.592;7.180;2024-01-30T03:07:09;18.98;;;8.93;;
37955;SDS011;23776;51.592;7.180;2024-01-30T03:09:36;21.83;;;9.02;;
37955;SDS011;23776;51.592;7.180;2024-01-30T03:12:01;21.73;;;9.15;;
37955;SDS011;23776;51.592;7.180;2024-01-30T03:14:30;19.95;;;8.75;;
37955;SDS011;23776;51.592;7.180;2024-01-30T03:16:56;19.05;;;8.68;;
37955;SDS011;23776;51.592;7.180;2024-01-30T03:19:22;19.73;;;8.98;;
37955;SDS011;23776;51.592;7.180;2024-01-30T03:21:48;17.00;;;8.73;;
37955;SDS011;23776;51.592;7.180;2024-01-30T03:24:13;16.58;;;7.85;;
37955;SDS011;23776;51.592;7.180;2024-01-30T03:26:39;16.85;;;9.27;;
37955;SDS011;23776;51.592;7.180;2024-01-30T03:29:04;17.70;;;8.48;;
37955;SDS011;23776;51.592;7.180;2024-01-30T03:31:30;24.35;;;9.70;;
37955;SDS011;23776;51.592;7.180;2024-01-30T03:33:56;17.60;;;8.82;;
37955;SDS011;23776;51.592;7.180;2024-01-30T03:36:21;19.10;;;9.18;;
37955;SDS011;23776;51.592;7.180;2024-01-30T03:38:47;17.75;;;8.57;;
37955;SDS011;23776;51.592;7.180;2024-01-30T03:41:12;20.15;;;8.50;;
37955;SDS011;23776;51.592;7.180;2024-01-30T03:43:38;17.92;;;9.15;;
37955;SDS011;23776;51.592;7.180;2024-01-30T03:46:03;19.00;;;8.73;;
37955;SDS011;23776;51.592;7.180;2024-01-30T03:48:29;22.60;;;8.82;;
37955;SDS011;23776;51.592;7.180;2024-01-30T03:50:55;16.05;;;8.20;;
37955;SDS011;23776;51.592;7.180;2024-01-30T03:53:21;15.55;;;8.38;;
37955;SDS011;23776;51.592;7.180;2024-01-30T03:55:47;15.80;;;8.48;;
37955;SDS011;23776;51.592;7.180;2024-01-30T03:58:12;18.23;;;8.80;;
37955;SDS011;23776;51.592;7.180;2024-01-30T04:00:38;18.75;;;9.20;;
37955;SDS011;23776;51.592;7.180;2024-01-30T04:03:04;21.48;;;8.57;;
37955;SDS011;23776;51.592;7.180;2024-01-30T04:05:30;18.77;;;8.20;;
37955;SDS011;23776;51.592;7.180;2024-01-30T04:07:55;19.67;;;8.80;;
37955;SDS011;23776;51.592;7.180;2024-01-30T04:10:21;17.35;;;8.55;;
37955;SDS011;23776;51.592;7.180;2024-01-30T04:12:46;14.55;;;7.82;;
37955;SDS011;23776;51.592;7.180;2024-01-30T04:15:12;19.83;;;9.18;;
37955;SDS011;23776;51.592;7.180;2024-01-30T04:17:38;16.38;;;8.23;;
37955;SDS011;23776;51.592;7.180;2024-01-30T04:20:04;20.65;;;8.93;;
37955;SDS011;23776;51.592;7.180;2024-01-30T04:22:31;22.20;;;9.55;;
37955;SDS011;23776;51.592;7.180;2024-01-30T04:24:56;15.40;;;8.68;;
37955;SDS011;23776;51.592;7.180;2024-01-30T04:27:22;14.70;;;8.82;;
37955;SDS011;23776;51.592;7.180;2024-01-30T04:29:47;22.38;;;9.55;;
37955;SDS011;23776;51.592;7.180;2024-01-30T04:32:13;16.50;;;7.97;;
37955;SDS011;23776;51.592;7.180;2024-01-30T04:34:39;22.75;;;9.07;;
37955;SDS011;23776;51.592;7.180;2024-01-30T04:37:04;18.27;;;9.40;;
37955;SDS011;23776;51.592;7.180;2024-01-30T04:39:30;22.52;;;8.80;;
37955;SDS011;23776;51.592;7.180;2024-01-30T04:41:57;22.13;;;8.73;;
37955;SDS011;23776;51.592;7.180;2024-01-30T04:44:24;19.23;;;8.82;;
37955;SDS011;23776;51.592;7.180;2024-01-30T04:46:49;16.85;;;8.60;;
37955;SDS011;23776;51.592;7.180;2024-01-30T04:49:15;18.08;;;8.95;;
37955;SDS011;23776;51.592;7.180;2024-01-30T04:51:41;29.52;;;10.05;;
37955;SDS011;23776;51.592;7.180;2024-01-30T04:54:06;19.23;;;8.90;;
37955;SDS011;23776;51.592;7.180;2024-01-30T04:56:32;18.15;;;9.30;;
37955;SDS011;23776;51.592;7.180;2024-01-30T04:58:57;17.85;;;8.93;;
37955;SDS011;23776;51.592;7.180;2024-01-30T05:01:23;20.90;;;8.80;;
37955;SDS011;23776;51.592;7.180;2024-01-30T05:03:48;22.83;;;8.70;;
37955;SDS011;23776;51.592;7.180;2024-01-30T05:06:23;19.60;;;9.52;;
37955;SDS011;23776;51.592;7.180;2024-01-30T05:08:49;18.75;;;9.35;;
37955;SDS011;23776;51.592;7.180;2024-01-30T05:11:15;18.55;;;9.07;;
37955;SDS011;23776;51.592;7.180;2024-01-30T05:13:40;20.35;;;8.55;;
37955;SDS011;23776;51.592;7.180;2024-01-30T05:16:06;15.73;;;9.05;;
37955;SDS011;23776;51.592;7.180;2024-01-30T05:18:31;17.58;;;8.30;;
37955;SDS011;23776;51.592;7.180;2024-01-30T05:20:57;17.73;;;8.80;;
37955;SDS011;23776;51.592;7.180;2024-01-30T05:23:23;22.80;;;9.27;;
37955;SDS011;23776;51.592;7.180;2024-01-30T05:25:48;18.10;;;8.18;;
37955;SDS011;23776;51.592;7.180;2024-01-30T05:28:14;12.73;;;7.40;;
37955;SDS011;23776;51.592;7.180;2024-01-30T05:30:39;23.60;;;8.70;;
37955;SDS011;23776;51.592;7.180;2024-01-30T05:33:05;20.17;;;8.82;;
37955;SDS011;23776;51.592;7.180;2024-01-30T05:35:30;16.77;;;8.57;;
37955;SDS011;23776;51.592;7.180;2024-01-30T05:37:56;19.30;;;8.40;;
37955;SDS011;23776;51.592;7.180;2024-01-30T05:40:21;22.55;;;9.77;;
37955;SDS011;23776;51.592;7.180;2024-01-30T05:42:47;20.63;;;9.32;;
37955;SDS011;23776;51.592;7.180;2024-01-30T05:45:13;19.80;;;8.23;;
37955;SDS011;23776;51.592;7.180;2024-01-30T05:47:39;19.10;;;8.27;;
37955;SDS011;23776;51.592;7.180;2024-01-30T05:50:05;15.63;;;8.02;;
37955;SDS011;23776;51.592;7.180;2024-01-30T05:52:31;17.75;;;8.45;;
37955;SDS011;23776;51.592;7.180;2024-01-30T05:54:56;20.65;;;8.55;;
37955;SDS011;23776;51.592;7.180;2024-01-30T05:57:22;18.20;;;8.43;;
37955;SDS011;23776;51.592;7.180;2024-01-30T05:59:48;13.43;;;7.63;;
37955;SDS011;23776;51.592;7.180;2024-01-30T06:02:13;18.08;;;8.15;;
37955;SDS011;23776;51.592;7.180;2024-01-30T06:04:39;16.45;;;8.80;;
37955;SDS011;23776;51.592;7.180;2024-01-30T06:07:05;20.00;;;9.30;;
37955;SDS011;23776;51.592;7.180;2024-01-30T06:09:31;19.00;;;9.25;;
37955;SDS011;23776;51.592;7.180;2024-01-30T06:11:57;16.60;;;9.10;;
37955;SDS011;23776;51.592;7.180;2024-01-30T06:14:23;20.33;;;8.57;;
37955;SDS011;23776;51.592;7.180;2024-01-30T06:16:49;22.13;;;8.48;;
37955;SDS011;23776;51.592;7.180;2024-01-30T06:19:14;14.48;;;7.90;;
37955;SDS011;23776;51.592;7.180;2024-01-30T06:21:40;15.32;;;7.65;;
37955;SDS011;23776;51.592;7.180;2024-01-30T06:24:06;16.30;;;7.82;;
37955;SDS011;23776;51.592;7.180;2024-01-30T06:26:32;15.50;;;8.65;;
37955;SDS011;23776;51.592;7.180;2024-01-30T06:28:57;20.92;;;7.80;;
37955;SDS011;23776;51.592;7.180;2024-01-30T06:31:23;16.45;;;8.27;;
37955;SDS011;23776;51.592;7.180;2024-01-30T06:33:49;15.00;;;7.40;;
37955;SDS011;23776;51.592;7.180;2024-01-30T06:36:15;16.52;;;7.40;;
37955;SDS011;23776;51.592;7.180;2024-01-30T06:38:40;18.15;;;8.50;;
37955;SDS011;23776;51.592;7.180;2024-01-30T06:41:06;15.05;;;7.28;;
37955;SDS011;23776;51.592;7.180;2024-01-30T06:43:32;14.00;;;7.30;;
37955;SDS011;23776;51.592;7.180;2024-01-30T06:45:57;18.75;;;7.78;;
37955;SDS011;23776;51.592;7.180;2024-01-30T06:48:24;18.42;;;8.20;;
37955;SDS011;23776;51.592;7.180;2024-01-30T06:50:50;21.42;;;9.27;;
37955;SDS011;23776;51.592;7.180;2024-01-30T06:53:18;15.70;;;8.10;;
37955;SDS011;23776;51.592;7.180;2024-01-30T06:55:44;14.95;;;7.63;;
37955;SDS011;23776;51.592;7.180;2024-01-30T06:58:09;15.77;;;8.00;;
37955;SDS011;23776;51.592;7.180;2024-01-30T07:00:35;15.00;;;7.97;;
37955;SDS011;23776;51.592;7.180;2024-01-30T07:03:01;17.23;;;8.02;;
37955;SDS011;23776;51.592;7.180;2024-01-30T07:05:27;17.30;;;7.47;;
37955;SDS011;23776;51.592;7.180;2024-01-30T07:07:52;17.00;;;7.88;;
37955;SDS011;23776;51.592;7.180;2024-01-30T07:10:18;17.60;;;7.53;;
37955;SDS011;23776;51.592;7.180;2024-01-30T07:12:44;16.67;;;8.43;;
37955;SDS011;23776;51.592;7.180;2024-01-30T07:15:09;13.27;;;7.28;;
37955;SDS011;23776;51.592;7.180;2024-01-30T07:17:35;13.48;;;6.72;;
37955;SDS011;23776;51.592;7.180;2024-01-30T07:20:01;18.75;;;8.00;;
37955;SDS011;23776;51.592;7.180;2024-01-30T07:22:30;15.02;;;7.47;;
37955;SDS011;23776;51.592;7.180;2024-01-30T07:24:56;16.40;;;7.75;;
37955;SDS011;23776;51.592;7.180;2024-01-30T07:27:22;16.55;;;7.70;;
37955;SDS011;23776;51.592;7.180;2024-01-30T07:29:47;13.60;;;7.18;;
37955;SDS011;23776;51.592;7.180;2024-01-30T07:32:13;14.57;;;8.02;;
37955;SDS011;23776;51.592;7.180;2024-01-30T07:34:39;14.05;;;7.63;;
37955;SDS011;23776;51.592;7.180;2024-01-30T07:37:06;19.92;;;7.97;;
37955;SDS011;23776;51.592;7.180;2024-01-30T07:39:33;13.10;;;6.78;;
37955;SDS011;23776;51.592;7.180;2024-01-30T07:41:59;15.43;;;7.05;;
37955;SDS011;23776;51.592;7.180;2024-01-30T07:44:25;14.45;;;6.70;;
37955;SDS011;23776;51.592;7.180;2024-01-30T07:46:50;12.60;;;7.32;;
37955;SDS011;23776;51.592;7.180;2024-01-30T07:49:16;16.35;;;6.85;;
37955;SDS011;23776;51.592;7.180;2024-01-30T07:51:42;14.63;;;8.05;;
37955;SDS011;23776;51.592;7.180;2024-01-30T07:54:08;11.80;;;5.97;;
37955;SDS011;23776;51.592;7.180;2024-01-30T07:56:33;13.00;;;6.30;;
37955;SDS011;23776;51.592;7.180;2024-01-30T07:58:59;13.27;;;7.10;;
37955;SDS011;23776;51.592;7.180;2024-01-30T08:01:25;14.70;;;7.03;;
37955;SDS011;23776;51.592;7.180;2024-01-30T08:03:50;13.85;;;7.05;;
37955;SDS011;23776;51.592;7.180;2024-01-30T08:06:16;18.10;;;6.57;;
37955;SDS011;23776;51.592;7.180;2024-01-30T08:08:42;15.02;;;6.88;;
37955;SDS011;23776;51.592;7.180;2024-01-30T08:11:08;14.13;;;6.57;;
37955;SDS011;23776;51.592;7.180;2024-01-30T08:13:33;13.70;;;5.57;;
37955;SDS011;23776;51.592;7.180;2024-01-30T08:15:59;14.55;;;6.90;;
37955;SDS011;23776;51.592;7.180;2024-01-30T08:18:24;15.57;;;6.05;;
37955;SDS011;23776;51.592;7.180;2024-01-30T08:20:50;14.80;;;5.97;;
37955;SDS011;23776;51.592;7.180;2024-01-30T08:23:16;10.50;;;5.68;;
37955;SDS011;23776;51.592;7.180;2024-01-30T08:25:41;12.35;;;6.15;;
37955;SDS011;23776;51.592;7.180;2024-01-30T08:28:07;10.40;;;5.57;;
37955;SDS011;23776;51.592;7.180;2024-01-30T08:30:33;9.13;;;5.20;;
37955;SDS011;23776;51.592;7.180;2024-01-30T08:32:58;14.25;;;6.03;;
37955;SDS011;23776;51.592;7.180;2024-01-30T08:35:24;12.55;;;5.93;;
37955;SDS011;23776;51.592;7.180;2024-01-30T08:37:49;16.20;;;6.22;;
37955;SDS011;23776;51.592;7.180;2024-01-30T08:40:15;14.10;;;6.22;;
37955;SDS011;23776;51.592;7.180;2024-01-30T08:42:41;15.02;;;5.72;;
37955;SDS011;23776;51.592;7.180;2024-01-30T08:45:06;15.60;;;5.80;;
37955;SDS011;23776;51.592;7.180;2024-01-30T08:47:33;17.42;;;6.40;;
37955;SDS011;23776;51.592;7.180;2024-01-30T08:49:58;11.30;;;5.65;;
37955;SDS011;23776;51.592;7.180;2024-01-30T08:52:24;12.27;;;6.15;;
37955;SDS011;23776;51.592;7.180;2024-01-30T08:54:50;11.85;;;5.97;;
37955;SDS011;23776;51.592;7.180;2024-01-30T08:57:15;16.13;;;6.25;;
37955;SDS011;23776;51.592;7.180;2024-01-30T08:59:41;12.38;;;5.47;;
37955;SDS011;23776;51.592;7.180;2024-01-30T09:02:09;15.52;;;5.97;;
37955;SDS011;23776;51.592;7.180;2024-01-30T09:04:35;17.33;;;6.65;;
37955;SDS011;23776;51.592;7.180;2024-01-30T09:07:00;16.85;;;7.13;;
37955;SDS011;23776;51.592;7.180;2024-01-30T09:09:26;11.38;;;6.05;;
37955;SDS011;23776;51.592;7.180;2024-01-30T09:11:51;14.30;;;6.00;;
37955;SDS011;23776;51.592;7.180;2024-01-30T09:14:17;14.57;;;6.88;;
37955;SDS011;23776;51.592;7.180;2024-01-30T09:16:42;11.77;;;6.18;;
37955;SDS011;23776;51.592;7.180;2024-01-30T09:19:08;18.10;;;6.10;;
37955;SDS011;23776;51.592;7.180;2024-01-30T09:21:33;12.43;;;6.03;;
37955;SDS011;23776;51.592;7.180;2024-01-30T09:24:02;12.52;;;5.68;;
37955;SDS011;23776;51.592;7.180;2024-01-30T09:26:31;11.48;;;5.95;;
37955;SDS011;23776;51.592;7.180;2024-01-30T09:28:57;14.15;;;6.57;;
37955;SDS011;23776;51.592;7.180;2024-01-30T09:31:22;10.95;;;6.05;;
37955;SDS011;23776;51.592;7.180;2024-01-30T09:33:48;12.68;;;6.20;;
37955;SDS011;23776;51.592;7.180;2024-01-30T09:36:14;16.73;;;6.53;;
37955;SDS011;23776;51.592;7.180;2024-01-30T09:38:44;12.80;;;5.78;;
37955;SDS011;23776;51.592;7.180;2024-01-30T09:41:10;17.08;;;6.72;;
37955;SDS011;23776;51.592;7.180;2024-01-30T09:43:36;15.60;;;6.78;;
37955;SDS011;23776;51.592;7.180;2024-01-30T09:46:03;16.15;;;6.50;;
37955;SDS011;23776;51.592;7.180;2024-01-30T09:48:30;12.10;;;6.43;;
37955;SDS011;23776;51.592;7.180;2024-01-30T09:50:57;11.60;;;6.05;;
37955;SDS011;23776;51.592;7.180;2024-01-30T09:53:23;17.83;;;7.30;;
37955;SDS011;23776;51.592;7.180;2024-01-30T09:55:50;18.42;;;6.70;;
37955;SDS011;23776;51.592;7.180;2024-01-30T09:58:16;11.98;;;6.38;;
37955;SDS011;23776;51.592;7.180;2024-01-30T10:00:41;11.02;;;5.72;;
37955;SDS011;23776;51.592;7.180;2024-01-30T10:03:07;13.52;;;6.30;;
37955;SDS011;23776;51.592;7.180;2024-01-30T10:05:34;17.13;;;6.15;;
37955;SDS011;23776;51.592;7.180;2024-01-30T10:08:05;11.77;;;6.28;;
37955;SDS011;23776;51.592;7.180;2024-01-30T10:10:33;12.75;;;6.30;;
37955;SDS011;23776;51.592;7.180;2024-01-30T10:12:58;15.35;;;5.53;;
37955;SDS011;23776;51.592;7.180;2024-01-30T10:15:24;10.73;;;5.47;;
37955;SDS011;23776;51.592;7.180;2024-01-30T10:17:52;13.98;;;5.47;;
37955;SDS011;23776;51.592;7.180;2024-01-30T10:20:18;16.00;;;5.25;;
37955;SDS011;23776;51.592;7.180;2024-01-30T10:22:44;13.02;;;5.43;;
37955;SDS011;23776;51.592;7.180;2024-01-30T10:25:10;12.23;;;5.75;;
37955;SDS011;23776;51.592;7.180;2024-01-30T10:27:36;11.98;;;5.40;;
37955;SDS011;23776;51.592;7.180;2024-01-30T10:30:04;12.25;;;5.05;;
37955;SDS011;23776;51.592;7.180;2024-01-30T10:32:30;10.93;;;5.28;;
37955;SDS011;23776;51.592;7.180;2024-01-30T10:34:56;10.57;;;5.38;;
37955;SDS011;23776;51.592;7.180;2024-01-30T10:37:21;17.85;;;5.65;;
37955;SDS011;23776;51.592;7.180;2024-01-30T10:39:50;14.68;;;5.85;;
37955;SDS011;23776;51.592;7.180;2024-01-30T10:42:20;14.75;;;5.82;;
37955;SDS011;23776;51.592;7.180;2024-01-30T10:47:31;11.52;;;5.60;;
37955;SDS011;23776;51.592;7.180;2024-01-30T10:50:00;15.88;;;6.70;;
37955;SDS011;23776;51.592;7.180;2024-01-30T10:52:26;14.57;;;5.60;;
37955;SDS011;23776;51.592;7.180;2024-01-30T10:54:54;12.70;;;5.97;;
37955;SDS011;23776;51.592;7.180;2024-01-30T10:57:22;9.38;;;5.43;;
37955;SDS011;23776;51.592;7.180;2024-01-30T10:59:56;15.50;;;5.60;;
37955;SDS011;23776;51.592;7.180;2024-01-30T11:02:23;21.48;;;6.95;;
37955;SDS011;23776;51.592;7.180;2024-01-30T11:04:50;12.95;;;5.32;;
37955;SDS011;23776;51.592;7.180;2024-01-30T11:07:29;10.10;;;5.10;;
37955;SDS011;23776;51.592;7.180;2024-01-30T11:12:24;13.00;;;5.53;;
37955;SDS011;23776;51.592;7.180;2024-01-30T11:17:41;12.10;;;5.90;;
37955;SDS011;23776;51.592;7.180;2024-01-30T11:20:11;13.82;;;5.97;;
37955;SDS011;23776;51.592;7.180;2024-01-30T11:22:40;17.85;;;5.60;;
37955;SDS011;23776;51.592;7.180;2024-01-30T11:25:10;13.30;;;5.65;;
37955;SDS011;23776;51.592;7.180;2024-01-30T11:27:37;13.23;;;6.30;;
37955;SDS011;23776;51.592;7.180;2024-01-30T11:30:03;12.68;;;5.60;;
37955;SDS011;23776;51.592;7.180;2024-01-30T11:32:29;13.57;;;5.57;;
37955;SDS011;23776;51.592;7.180;2024-01-30T11:34:55;16.73;;;6.18;;
37955;SDS011;23776;51.592;7.180;2024-01-30T11:37:20;12.57;;;6.28;;
37955;SDS011;23776;51.592;7.180;2024-01-30T11:39:49;12.13;;;6.28;;
37955;SDS011;23776;51.592;7.180;2024-01-30T11:42:16;16.38;;;6.07;;
37955;SDS011;23776;51.592;7.180;2024-01-30T11:44:46;19.23;;;5.82;;
37955;SDS011;23776;51.592;7.180;2024-01-30T11:47:14;20.13;;;6.43;;
37955;SDS011;23776;51.592;7.180;2024-01-30T11:49:40;10.68;;;6.20;;
37955;SDS011;23776;51.592;7.180;2024-01-30T11:52:06;16.90;;;5.80;;
37955;SDS011;23776;51.592;7.180;2024-01-30T11:54:32;16.00;;;6.65;;
37955;SDS011;23776;51.592;7.180;2024-01-30T11:56:58;20.48;;;6.90;;
37955;SDS011;23776;51.592;7.180;2024-01-30T11:59:24;15.05;;;6.22;;
37955;SDS011;23776;51.592;7.180;2024-01-30T12:01:51;17.40;;;7.35;;
37955;SDS011;23776;51.592;7.180;2024-01-30T12:04:17;17.00;;;7.18;;
37955;SDS011;23776;51.592;7.180;2024-01-30T12:06:43;13.27;;;6.70;;
37955;SDS011;23776;51.592;7.180;2024-01-30T12:09:08;18.35;;;6.57;;
37955;SDS011;23776;51.592;7.180;2024-01-30T12:11:47;19.08;;;6.35;;
37955;SDS011;23776;51.592;7.180;2024-01-30T12:14:15;18.90;;;6.88;;
37955;SDS011;23776;51.592;7.180;2024-01-30T12:16:42;17.50;;;7.32;;
37955;SDS011;23776;51.592;7.180;2024-01-30T12:19:07;18.00;;;6.97;;
37955;SDS011;23776;51.592;7.180;2024-01-30T12:21:33;12.90;;;6.10;;
37955;SDS011;23776;51.592;7.180;2024-01-30T12:24:00;12.68;;;6.22;;
37955;SDS011;23776;51.592;7.180;2024-01-30T12:26:26;22.25;;;7.30;;
37955;SDS011;23776;51.592;7.180;2024-01-30T12:28:54;13.90;;;6.43;;
37955;SDS011;23776;51.592;7.180;2024-01-30T12:31:31;17.60;;;6.60;;
37955;SDS011;23776;51.592;7.180;2024-01-30T12:33:59;17.33;;;7.15;;
37955;SDS011;23776;51.592;7.180;2024-01-30T12:36:25;18.95;;;7.00;;
37955;SDS011;23776;51.592;7.180;2024-01-30T12:38:51;17.50;;;7.10;;
37955;SDS011;23776;51.592;7.180;2024-01-30T12:41:16;20.95;;;7.20;;
37955;SDS011;23776;51.592;7.180;2024-01-30T12:43:42;13.98;;;7.57;;
37955;SDS011;23776;51.592;7.180;2024-01-30T12:46:09;16.27;;;6.78;;
37955;SDS011;23776;51.592;7.180;2024-01-30T12:48:34;13.82;;;6.13;;
37955;SDS011;23776;51.592;7.180;2024-01-30T12:51:00;12.45;;;6.28;;
37955;SDS011;23776;51.592;7.180;2024-01-30T12:53:26;12.15;;;6.05;;
37955;SDS011;23776;51.592;7.180;2024-01-30T12:55:51;16.85;;;7.10;;
37955;SDS011;23776;51.592;7.180;2024-01-30T12:58:19;18.38;;;6.72;;
37955;SDS011;23776;51.592;7.180;2024-01-30T13:00:44;18.45;;;7.25;;
37955;SDS011;23776;51.592;7.180;2024-01-30T13:03:10;16.55;;;6.57;;
37955;SDS011;23776;51.592;7.180;2024-01-30T13:05:36;18.98;;;7.57;;
37955;SDS011;23776;51.592;7.180;2024-01-30T13:08:02;16.73;;;7.07;;
37955;SDS011;23776;51.592;7.180;2024-01-30T13:10:28;10.48;;;6.68;;
37955;SDS011;23776;51.592;7.180;2024-01-30T13:12:54;18.67;;;6.60;;
37955;SDS011;23776;51.592;7.180;2024-01-30T13:15:19;16.15;;;6.63;;
37955;SDS011;23776;51.592;7.180;2024-01-30T13:17:45;21.05;;;6.93;;
37955;SDS011;23776;51.592;7.180;2024-01-30T13:20:13;18.10;;;7.65;;
37955;SDS011;23776;51.592;7.180;2024-01-30T13:22:41;14.63;;;6.57;;
37955;SDS011;23776;51.592;7.180;2024-01-30T13:25:08;21.05;;;7.88;;
37955;SDS011;23776;51.592;7.180;2024-01-30T13:27:33;19.05;;;6.97;;
37955;SDS011;23776;51.592;7.180;2024-01-30T13:29:59;18.95;;;8.68;;
37955;SDS011;23776;51.592;7.180;2024-01-30T13:32:25;15.45;;;6.90;;
37955;SDS011;23776;51.592;7.180;2024-01-30T13:34:51;18.83;;;7.72;;
37955;SDS011;23776;51.592;7.180;2024-01-30T13:37:16;20.30;;;7.63;;
37955;SDS011;23776;51.592;7.180;2024-01-30T13:39:42;16.15;;;7.25;;
37955;SDS011;23776;51.592;7.180;2024-01-30T13:42:07;18.48;;;7.43;;
37955;SDS011;23776;51.592;7.180;2024-01-30T13:44:34;14.77;;;7.03;;
37955;SDS011;23776;51.592;7.180;2024-01-30T13:47:00;18.75;;;8.05;;
37955;SDS011;23776;51.592;7.180;2024-01-30T13:49:26;19.15;;;8.05;;
37955;SDS011;23776;51.592;7.180;2024-01-30T13:51:52;18.65;;;7.45;;
37955;SDS011;23776;51.592;7.180;2024-01-30T13:54:17;24.65;;;8.85;;
37955;SDS011;23776;51.592;7.180;2024-01-30T13:56:43;18.52;;;8.32;;
37955;SDS011;23776;51.592;7.180;2024-01-30T13:59:08;18.38;;;8.43;;
37955;SDS011;23776;51.592;7.180;2024-01-30T14:01:34;21.00;;;8.48;;
37955;SDS011;23776;51.592;7.180;2024-01-30T14:03:59;19.08;;;7.88;;
37955;SDS011;23776;51.592;7.180;2024-01-30T14:06:25;21.08;;;7.57;;
37955;SDS011;23776;51.592;7.180;2024-01-30T14:08:51;22.02;;;7.65;;
37955;SDS011;23776;51.592;7.180;2024-01-30T14:11:16;13.43;;;7.35;;
37955;SDS011;23776;51.592;7.180;2024-01-30T14:13:42;16.58;;;6.82;;
37955;SDS011;23776;51.592;7.180;2024-01-30T14:16:07;24.40;;;7.72;;
37955;SDS011;23776;51.592;7.180;2024-01-30T14:18:33;14.18;;;7.32;;
37955;SDS011;23776;51.592;7.180;2024-01-30T14:20:58;14.00;;;7.78;;
37955;SDS011;23776;51.592;7.180;2024-01-30T14:23:24;19.90;;;7.60;;
37955;SDS011;23776;51.592;7.180;2024-01-30T14:25:49;19.23;;;7.75;;
37955;SDS011;23776;51.592;7.180;2024-01-30T14:28:16;15.88;;;7.85;;
37955;SDS011;23776;51.592;7.180;2024-01-30T14:30:42;18.17;;;7.75;;
37955;SDS011;23776;51.592;7.180;2024-01-30T14:33:07;20.35;;;8.43;;
37955;SDS011;23776;51.592;7.180;2024-01-30T14:35:33;19.88;;;8.48;;